Tupelo Regional Airport
KTUP : now visible

Airfield :











YOU CAN JOIN US ON...

 
LOGIN :

Register | Disclaimer

   EN    FR    IT 

 









Legend :    VFR   Marginal VFR   IFR   Intensive IFR   Very Intensive IFR
Visi :
Ceiling :
>= 8 km
>= 3000ft
5 to 8 km
1000 to 3000 ft
1500m to 5 km
500 to 1000 ft
800 to 1500m
200 to 500 ft
< 800m
< 200 ft
Symbols :   Thunderstorms  Fog  Heavy snow  Heavy precipitations  Wind > 20 kt






- Airport Elevation : 346 ft
- IATA code : TUP


KTUP - Tupelo Regional

CURRENT METAR :
  • 190753Z AUTO 09003KT 10SM SCT003 SCT030 BKN048 23/21 A3004 RMK AO2 SLP167 T02280211 $

EXPIRED METARs :
  • 190701Z AUTO 00000KT 10SM OVC004 23/21 A3004 RMK AO2 T02280211 $
  • 190653Z AUTO 02003KT 10SM OVC005 23/21 A3004 RMK AO2 SLP169 T02280211 $
  • 190627Z AUTO 00000KT 10SM BKN004 BKN012 OVC046 23/21 A3005 RMK AO2 T02280211 $
  • 190617Z AUTO 07003KT 10SM SCT004 BKN017 OVC044 23/21 A3004 RMK AO2 T02280211 $
  • 190553Z AUTO 02004KT 10SM FEW004 BKN010 OVC019 23/21 A3004 RMK AO2 CIG 008V013 SLP168 60009 T02280211 10233 20222 403170222 50003 $
  • 190534Z AUTO 03004KT 10SM SCT005 BKN009 OVC014 23/21 A3004 RMK AO2 CIG 007V012 T02280211 $
  • 190522Z AUTO 03004KT 8SM SCT005 OVC014 23/21 A3004 RMK AO2 T02280211 $

TAF KTUP
Valid from the 19 at 06:00 until the 20 at 06:00 UTC


190520Z 1906/2006 12005KT 5SM BR OVC005
FM191700 VRB04KT P6SM VCSH OVC025
FM200200 12005KT 5SM BR SCT015 BKN250
KZME FIR / North America



MET'MAP, your aeronautical weather chart ! - Copyright ORBIFLY December 2007 - Disclaimer

ORBIFLY MET'MAP TEAM :

Programming & Development : Alexandra Zaïnal
Concept & original design : Baudouin d'Aumeries
Assistance for programming : Marc-Olivier Méhu
Technical & hardware support : Manuel Goepfert

Contact : metmap@orbifly.com




SOURCES & CREDITS :

   NOAA       Earth
Advisory